createdAt,value
2018-09-21T00:00:48.197Z,9.47
2018-09-21T00:03:16.465Z,8.23
2018-09-21T00:05:44.742Z,10.10
2018-09-21T00:08:13.957Z,9.80
2018-09-21T00:10:42.248Z,10.53
2018-09-21T00:13:10.522Z,9.93
2018-09-21T00:15:38.830Z,9.87
2018-09-21T00:18:07.165Z,11.07
2018-09-21T00:20:35.458Z,11.37
2018-09-21T00:23:03.761Z,13.00
2018-09-21T00:25:32.038Z,11.33
2018-09-21T00:28:00.327Z,11.50
2018-09-21T00:30:28.615Z,13.10
2018-09-21T00:32:56.921Z,11.13
2018-09-21T00:35:25.196Z,12.73
2018-09-21T00:37:53.473Z,11.80
2018-09-21T00:40:21.765Z,11.87
2018-09-21T00:42:50.050Z,12.73
2018-09-21T00:45:18.358Z,11.03
2018-09-21T00:47:46.629Z,13.50
2018-09-21T00:50:14.918Z,13.00
2018-09-21T00:52:43.198Z,13.27
2018-09-21T00:55:11.472Z,14.47
2018-09-21T00:57:39.746Z,15.40
2018-09-21T01:00:08.786Z,16.03
2018-09-21T01:02:37.065Z,19.60
2018-09-21T01:05:05.337Z,25.53
2018-09-21T01:07:33.622Z,19.00
2018-09-21T01:10:01.917Z,18.83
2018-09-21T01:12:30.217Z,19.70
2018-09-21T01:14:58.485Z,17.23
2018-09-21T01:17:26.761Z,17.40
2018-09-21T01:19:55.295Z,16.67
2018-09-21T01:22:23.578Z,16.27
2018-09-21T01:24:51.914Z,17.50
2018-09-21T01:27:20.219Z,16.67
2018-09-21T01:29:48.539Z,16.40
2018-09-21T01:32:16.842Z,17.10
2018-09-21T01:34:45.139Z,22.03
2018-09-21T01:37:13.446Z,20.43
2018-09-21T01:39:41.765Z,18.37
2018-09-21T01:42:10.062Z,20.43
2018-09-21T01:44:38.345Z,20.63
2018-09-21T01:47:06.949Z,18.37
2018-09-21T01:49:35.189Z,17.63
2018-09-21T01:52:03.837Z,18.60
2018-09-21T01:54:32.130Z,17.50
2018-09-21T01:57:00.425Z,18.70
2018-09-21T01:59:28.726Z,17.17
2018-09-21T02:01:57.030Z,19.33
2018-09-21T02:04:30.862Z,15.73
2018-09-21T02:06:59.158Z,17.20
2018-09-21T02:09:27.497Z,15.83
2018-09-21T02:11:55.757Z,17.03
2018-09-21T02:14:24.061Z,15.80
2018-09-21T02:16:52.635Z,19.57
2018-09-21T02:19:21.126Z,18.13
2018-09-21T02:21:49.466Z,16.33
2018-09-21T02:24:18.790Z,17.53
2018-09-21T02:26:47.104Z,17.03
2018-09-21T02:29:15.425Z,17.00
2018-09-21T02:31:43.812Z,13.70
2018-09-21T02:34:12.133Z,14.00
2018-09-21T02:36:40.442Z,18.40
2018-09-21T02:39:10.263Z,15.30
2018-09-21T02:41:38.610Z,17.03
2018-09-21T02:44:07.210Z,15.83
2018-09-21T02:46:35.717Z,15.50
2018-09-21T02:49:04.018Z,16.10
2018-09-21T02:51:32.665Z,15.13
2018-09-21T02:54:00.953Z,14.67
2018-09-21T02:56:29.286Z,17.00
2018-09-21T02:58:57.615Z,14.30
2018-09-21T03:01:26.917Z,14.10
2018-09-21T03:03:55.217Z,13.57
2018-09-21T03:06:23.541Z,13.43
2018-09-21T03:08:51.833Z,13.03
2018-09-21T03:11:20.172Z,14.37
2018-09-21T03:13:48.485Z,13.10
2018-09-21T03:16:16.801Z,14.37
2018-09-21T03:18:45.086Z,13.07
2018-09-21T03:21:13.394Z,13.73
2018-09-21T03:23:42.734Z,14.63
2018-09-21T03:26:11.046Z,13.40
2018-09-21T03:28:39.330Z,12.67
2018-09-21T03:31:07.646Z,13.23
2018-09-21T03:33:35.953Z,12.33
2018-09-21T03:36:04.253Z,13.73
2018-09-21T03:38:32.607Z,12.90
2018-09-21T03:41:00.934Z,11.30
2018-09-21T03:43:29.258Z,13.80
2018-09-21T03:45:57.544Z,12.30
2018-09-21T03:48:25.876Z,12.30
2018-09-21T03:50:54.169Z,13.37
2018-09-21T03:53:23.483Z,13.93
2018-09-21T03:55:51.789Z,12.93
2018-09-21T03:58:20.119Z,11.70
2018-09-21T04:00:48.389Z,12.00
2018-09-21T04:03:16.709Z,13.23
2018-09-21T04:05:45.004Z,11.83
2018-09-21T04:08:13.342Z,13.47
2018-09-21T04:10:41.640Z,12.27
2018-09-21T04:13:11.028Z,12.57
2018-09-21T04:15:39.312Z,12.20
2018-09-21T04:18:07.581Z,12.37
2018-09-21T04:20:35.899Z,13.03
2018-09-21T04:23:04.272Z,12.63
2018-09-21T04:25:33.169Z,13.17
2018-09-21T04:28:01.470Z,12.10
2018-09-21T04:30:29.823Z,11.40
2018-09-21T04:32:58.621Z,12.33
2018-09-21T04:35:27.159Z,13.67
2018-09-21T04:37:55.467Z,12.50
2018-09-21T04:40:23.786Z,12.43
2018-09-21T04:42:52.077Z,13.10
2018-09-21T04:45:20.375Z,11.50
2018-09-21T04:47:48.943Z,11.30
2018-09-21T04:50:17.263Z,12.23
2018-09-21T04:52:45.563Z,10.37
2018-09-21T04:55:13.850Z,12.40
2018-09-21T04:57:42.142Z,11.87
2018-09-21T05:00:10.467Z,11.57
2018-09-21T05:02:38.758Z,11.10
2018-09-21T05:05:07.079Z,12.57
2018-09-21T05:07:35.376Z,12.87
2018-09-21T05:10:03.709Z,13.00
2018-09-21T05:12:33.006Z,12.40
2018-09-21T05:15:01.313Z,11.43
2018-09-21T05:17:30.481Z,12.33
2018-09-21T05:19:58.772Z,13.13
2018-09-21T05:22:28.074Z,12.57
2018-09-21T05:24:56.401Z,14.30
2018-09-21T05:27:27.218Z,15.03
2018-09-21T05:29:55.602Z,12.83
2018-09-21T05:32:23.897Z,11.63
2018-09-21T05:34:52.239Z,12.70
2018-09-21T05:37:20.486Z,13.40
2018-09-21T05:39:48.794Z,12.57
2018-09-21T05:42:17.095Z,13.00
2018-09-21T05:44:45.388Z,12.93
2018-09-21T05:47:13.718Z,13.70
2018-09-21T05:49:41.978Z,13.10
2018-09-21T05:52:10.771Z,13.70
2018-09-21T05:54:39.094Z,14.33
2018-09-21T05:57:07.374Z,13.43
2018-09-21T05:59:35.653Z,12.80
2018-09-21T06:02:04.039Z,14.13
2018-09-21T06:04:33.034Z,12.87
2018-09-21T06:07:01.348Z,15.07
2018-09-21T06:09:29.674Z,13.07
2018-09-21T06:11:57.988Z,13.10
2018-09-21T06:14:26.282Z,12.20
2018-09-21T06:16:54.582Z,13.43
2018-09-21T06:19:25.871Z,12.53
2018-09-21T06:21:54.149Z,11.80
2018-09-21T06:24:22.412Z,13.83
2018-09-21T06:26:50.696Z,13.60
2018-09-21T06:29:18.996Z,13.50
2018-09-21T06:31:47.280Z,12.80
2018-09-21T06:34:15.629Z,12.97
2018-09-21T06:36:43.915Z,11.77
2018-09-21T06:39:13.472Z,17.07
2018-09-21T06:41:42.657Z,28.53
2018-09-21T06:44:12.030Z,42.37
2018-09-21T06:46:40.335Z,32.87
2018-09-21T06:49:08.641Z,33.03
2018-09-21T06:51:36.945Z,25.17
2018-09-21T06:54:05.236Z,25.03
2018-09-21T06:56:33.537Z,26.00
2018-09-21T06:59:01.829Z,22.67
2018-09-21T07:01:30.241Z,27.63
2018-09-21T07:03:58.473Z,20.80
2018-09-21T07:06:26.804Z,20.13
2018-09-21T07:08:55.128Z,20.50
2018-09-21T07:11:23.425Z,21.70
2018-09-21T07:13:52.058Z,21.93
2018-09-21T07:16:20.353Z,22.50
2018-09-21T07:18:49.674Z,22.07
2018-09-21T07:21:17.997Z,18.03
2018-09-21T07:23:46.301Z,17.30
2018-09-21T07:26:14.604Z,17.00
2018-09-21T07:28:42.934Z,16.53
2018-09-21T07:31:11.252Z,16.10
2018-09-21T07:33:39.519Z,14.80
2018-09-21T07:36:07.871Z,16.80
2018-09-21T07:38:36.185Z,15.07
2018-09-21T07:41:04.505Z,15.80
2018-09-21T07:43:32.797Z,16.33
2018-09-21T07:46:01.673Z,16.27
2018-09-21T07:48:29.961Z,14.20
2018-09-21T07:50:58.262Z,15.00
2018-09-21T07:53:26.536Z,13.77
2018-09-21T07:55:55.874Z,15.30
2018-09-21T07:58:24.281Z,14.13
2018-09-21T08:00:52.625Z,15.57
2018-09-21T08:03:20.981Z,15.23
2018-09-21T08:05:49.306Z,14.20
2018-09-21T08:08:17.662Z,13.73
2018-09-21T08:10:46.997Z,14.17
2018-09-21T08:13:17.328Z,14.40
2018-09-21T08:15:45.635Z,12.30
2018-09-21T08:18:14.068Z,14.00
2018-09-21T08:20:42.365Z,13.87
2018-09-21T08:23:10.717Z,12.53
2018-09-21T08:25:39.042Z,13.70
2018-09-21T08:28:07.354Z,13.57
2018-09-21T08:30:35.749Z,12.70
2018-09-21T08:33:05.187Z,14.37
2018-09-21T08:35:33.482Z,14.63
2018-09-21T08:38:01.880Z,14.50
2018-09-21T08:40:30.108Z,13.53
2018-09-21T08:42:58.401Z,12.70
2018-09-21T08:45:26.751Z,14.23
2018-09-21T08:47:55.051Z,12.40
2018-09-21T08:50:23.350Z,13.90
2018-09-21T08:52:51.734Z,12.13
2018-09-21T08:55:20.054Z,13.80
2018-09-21T08:57:48.399Z,13.60
2018-09-21T09:00:16.719Z,12.70
2018-09-21T09:02:46.056Z,13.67
2018-09-21T09:05:14.402Z,12.50
2018-09-21T09:07:42.731Z,12.87
2018-09-21T09:10:11.090Z,13.70
2018-09-21T09:12:39.387Z,11.87
2018-09-21T09:15:10.705Z,12.97
2018-09-21T09:17:39.000Z,11.93
2018-09-21T09:20:08.382Z,12.37
2018-09-21T09:22:36.699Z,12.60
2018-09-21T09:25:05.864Z,11.90
2018-09-21T09:27:34.254Z,12.57
2018-09-21T09:30:02.988Z,10.57
2018-09-21T09:32:31.258Z,11.57
2018-09-21T09:34:59.616Z,12.30
2018-09-21T09:37:27.906Z,11.20
2018-09-21T09:39:56.221Z,11.40
2018-09-21T09:42:24.535Z,10.67
2018-09-21T09:44:52.854Z,10.20
2018-09-21T09:47:21.167Z,10.53
2018-09-21T09:49:49.463Z,10.43
2018-09-21T09:52:17.784Z,9.60
2018-09-21T09:54:46.132Z,10.27
2018-09-21T09:57:14.398Z,9.87
2018-09-21T09:59:42.689Z,9.90
2018-09-21T10:02:12.016Z,10.40
2018-09-21T10:04:40.297Z,9.23
2018-09-21T10:07:08.613Z,9.50
2018-09-21T10:09:36.905Z,9.80
2018-09-21T10:12:05.209Z,9.00
2018-09-21T10:14:33.531Z,9.60
2018-09-21T10:17:01.864Z,9.90
2018-09-21T10:19:30.162Z,8.77
2018-09-21T10:21:58.469Z,9.10
2018-09-21T10:24:26.774Z,9.40
2018-09-21T10:26:55.116Z,9.87
2018-09-21T10:29:23.452Z,9.47
2018-09-21T10:31:51.782Z,9.93
2018-09-21T10:34:21.186Z,9.93
2018-09-21T10:36:50.527Z,9.73
2018-09-21T10:39:19.931Z,10.23
2018-09-21T10:41:48.199Z,9.87
2018-09-21T10:44:16.517Z,11.27
2018-09-21T10:46:44.855Z,9.67
2018-09-21T10:49:13.154Z,10.10
2018-09-21T10:51:41.539Z,9.57
2018-09-21T10:54:09.823Z,9.90
2018-09-21T10:56:39.155Z,10.77
2018-09-21T10:59:07.465Z,10.30
2018-09-21T11:01:36.826Z,9.87
2018-09-21T11:04:05.230Z,9.40
2018-09-21T11:06:34.558Z,10.17
2018-09-21T11:09:03.026Z,9.90
2018-09-21T11:11:32.348Z,9.37
2018-09-21T11:14:00.741Z,10.27
2018-09-21T11:16:29.106Z,9.90
2018-09-21T11:18:57.491Z,10.00
2018-09-21T11:21:26.722Z,8.20
2018-09-21T11:23:55.038Z,10.60
2018-09-21T11:26:23.391Z,9.20
2018-09-21T11:28:51.689Z,9.80
2018-09-21T11:31:20.025Z,10.10
2018-09-21T11:33:48.334Z,10.73
2018-09-21T11:36:17.665Z,9.80
2018-09-21T11:38:45.985Z,9.93
2018-09-21T11:41:14.330Z,8.87
2018-09-21T11:43:42.679Z,9.53
2018-09-21T11:46:11.003Z,9.63
2018-09-21T11:48:40.344Z,9.60
2018-09-21T11:51:08.642Z,10.53
2018-09-21T11:53:36.958Z,9.40
2018-09-21T11:56:05.298Z,9.13
2018-09-21T11:58:34.623Z,10.13
2018-09-21T12:01:02.940Z,9.30
2018-09-21T12:03:31.246Z,10.20
2018-09-21T12:05:59.609Z,10.03
2018-09-21T12:08:32.295Z,10.20
2018-09-21T12:11:00.610Z,9.03
2018-09-21T12:13:29.058Z,9.30
2018-09-21T12:15:57.374Z,9.73
2018-09-21T12:18:25.672Z,10.03
2018-09-21T12:20:53.978Z,10.53
2018-09-21T12:23:22.284Z,8.70
2018-09-21T12:25:50.607Z,9.30
2018-09-21T12:28:18.989Z,9.97
2018-09-21T12:30:47.284Z,9.00
2018-09-21T12:33:16.642Z,9.10
2018-09-21T12:35:44.959Z,9.97
2018-09-21T12:38:14.342Z,10.00
2018-09-21T12:40:42.682Z,9.90
2018-09-21T12:43:12.032Z,9.47
2018-09-21T12:45:40.363Z,9.50
2018-09-21T12:48:08.674Z,10.07
2018-09-21T12:50:37.063Z,9.50
2018-09-21T12:53:05.380Z,9.37
2018-09-21T12:55:33.767Z,10.57
2018-09-21T12:58:02.193Z,10.00
2018-09-21T13:00:35.746Z,10.20
2018-09-21T13:03:04.066Z,10.30
2018-09-21T13:05:32.353Z,9.13
2018-09-21T13:08:00.694Z,9.70
2018-09-21T13:10:29.006Z,9.73
2018-09-21T13:12:57.385Z,10.37
2018-09-21T13:15:26.833Z,9.80
2018-09-21T13:17:55.158Z,8.60
2018-09-21T13:20:23.457Z,9.50
2018-09-21T13:22:51.790Z,9.57
2018-09-21T13:25:21.142Z,10.60
2018-09-21T13:27:49.462Z,10.10
2018-09-21T13:30:18.816Z,9.07
2018-09-21T13:32:47.190Z,9.37
2018-09-21T13:35:15.525Z,9.43
2018-09-21T13:37:43.870Z,9.37
2018-09-21T13:40:12.208Z,9.70
2018-09-21T13:42:40.557Z,10.33
2018-09-21T13:45:08.926Z,9.27
2018-09-21T13:47:37.270Z,9.93
2018-09-21T13:50:05.745Z,9.50
2018-09-21T13:52:34.134Z,9.63
2018-09-21T13:55:02.453Z,8.70
2018-09-21T13:57:30.774Z,8.60
2018-09-21T13:59:59.079Z,9.87
2018-09-21T14:02:27.395Z,8.60
2018-09-21T14:04:55.689Z,9.00
2018-09-21T14:07:24.006Z,10.20
2018-09-21T14:09:52.360Z,8.60
2018-09-21T14:12:20.674Z,8.80
2018-09-21T14:14:48.973Z,8.83
2018-09-21T14:17:17.274Z,9.30
2018-09-21T14:19:45.606Z,8.67
2018-09-21T14:22:13.925Z,8.37
2018-09-21T14:24:42.254Z,9.83
2018-09-21T14:27:10.551Z,9.03
2018-09-21T14:29:38.918Z,8.50
2018-09-21T14:32:07.211Z,8.33
2018-09-21T14:34:35.556Z,8.70
2018-09-21T14:37:03.890Z,8.20
2018-09-21T14:39:32.209Z,7.60
2018-09-21T14:42:00.542Z,8.53
2018-09-21T14:44:28.911Z,9.00
2018-09-21T14:46:57.212Z,8.50
2018-09-21T14:49:25.509Z,8.97
2018-09-21T14:51:53.875Z,8.30
2018-09-21T14:54:28.905Z,7.20
2018-09-21T14:56:57.273Z,8.73
2018-09-21T14:59:25.618Z,8.63
2018-09-21T15:01:53.936Z,7.93
2018-09-21T15:04:22.305Z,8.10
2018-09-21T15:06:50.644Z,7.97
2018-09-21T15:09:18.989Z,7.40
2018-09-21T15:11:47.334Z,7.30
2018-09-21T15:14:15.647Z,8.03
2018-09-21T15:16:43.958Z,8.37
2018-09-21T15:19:12.264Z,9.07
2018-09-21T15:21:40.768Z,8.63
2018-09-21T15:24:09.216Z,7.80
2018-09-21T15:26:37.570Z,8.63
2018-09-21T15:29:06.946Z,8.73
2018-09-21T15:31:35.331Z,9.20
2018-09-21T15:34:03.706Z,8.30
2018-09-21T15:36:32.014Z,7.73
2018-09-21T15:39:01.362Z,7.17
2018-09-21T15:41:29.782Z,7.17
2018-09-21T15:43:58.121Z,7.77
2018-09-21T15:46:26.514Z,6.53
2018-09-21T15:48:54.954Z,5.90
2018-09-21T15:51:23.268Z,5.30
2018-09-21T15:53:51.602Z,5.50
2018-09-21T15:56:19.914Z,4.13
2018-09-21T15:58:48.395Z,4.97
2018-09-21T16:01:16.729Z,3.70
2018-09-21T16:03:45.087Z,3.80
2018-09-21T16:06:13.402Z,3.17
2018-09-21T16:08:41.718Z,3.53
2018-09-21T16:11:10.080Z,3.10
2018-09-21T16:13:38.394Z,3.13
2018-09-21T16:16:06.817Z,3.00
2018-09-21T16:18:35.145Z,2.40
2018-09-21T16:21:03.466Z,2.07
2018-09-21T16:23:32.015Z,2.27
2018-09-21T16:26:00.349Z,1.93
2018-09-21T16:28:28.761Z,1.90
2018-09-21T16:30:57.100Z,1.20
2018-09-21T16:33:25.424Z,1.60
2018-09-21T16:35:53.805Z,1.20
2018-09-21T16:38:22.103Z,1.10
2018-09-21T16:40:50.530Z,1.20
2018-09-21T16:43:18.825Z,1.30
2018-09-21T16:45:47.257Z,1.40
2018-09-21T16:48:15.637Z,1.70
2018-09-21T16:50:43.977Z,1.60
2018-09-21T16:53:12.247Z,1.10
2018-09-21T16:55:40.613Z,1.27
2018-09-21T16:58:09.021Z,1.20
2018-09-21T17:00:38.374Z,1.30
2018-09-21T17:03:06.848Z,1.23
2018-09-21T17:05:35.166Z,1.30
2018-09-21T17:08:03.518Z,1.60
2018-09-21T17:10:31.858Z,1.53
2018-09-21T17:13:00.187Z,1.80
2018-09-21T17:15:28.649Z,2.10
2018-09-21T17:17:57.997Z,2.07
2018-09-21T17:20:26.336Z,1.87
2018-09-21T17:22:54.678Z,2.27
2018-09-21T17:25:23.002Z,2.13
2018-09-21T17:27:51.387Z,2.03
2018-09-21T17:30:19.778Z,1.73
2018-09-21T17:32:48.087Z,2.70
2018-09-21T17:35:16.430Z,1.87
2018-09-21T17:37:44.788Z,2.50
2018-09-21T17:40:13.109Z,2.60
2018-09-21T17:42:41.412Z,2.43
2018-09-21T17:45:09.756Z,3.10
2018-09-21T17:47:38.046Z,2.27
2018-09-21T17:50:06.402Z,2.50
2018-09-21T17:52:34.746Z,2.33
2018-09-21T17:55:04.013Z,1.97
2018-09-21T17:57:32.482Z,2.60
2018-09-21T18:00:00.798Z,2.77
2018-09-21T18:02:29.109Z,2.83
2018-09-21T18:04:58.514Z,2.90
2018-09-21T18:07:26.901Z,2.70
2018-09-21T18:09:56.173Z,2.47
2018-09-21T18:12:24.491Z,2.93
2018-09-21T18:14:53.115Z,2.60
2018-09-21T18:17:21.462Z,2.47
2018-09-21T18:19:49.762Z,2.60
2018-09-21T18:22:18.122Z,2.60
2018-09-21T18:24:46.427Z,2.43
2018-09-21T18:27:14.756Z,2.77
2018-09-21T18:29:43.080Z,2.43
2018-09-21T18:32:11.422Z,3.00
2018-09-21T18:34:39.770Z,2.17
2018-09-21T18:37:08.078Z,2.60
2018-09-21T18:39:37.465Z,2.90
2018-09-21T18:42:05.795Z,3.30
2018-09-21T18:44:34.142Z,3.10
2018-09-21T18:47:02.415Z,2.50
2018-09-21T18:49:30.771Z,2.53
2018-09-21T18:51:59.341Z,2.63
2018-09-21T18:54:28.614Z,2.10
2018-09-21T18:56:56.917Z,2.60
2018-09-21T18:59:25.242Z,2.67
2018-09-21T19:01:53.541Z,2.70
2018-09-21T19:04:21.894Z,2.27
2018-09-21T19:06:50.239Z,2.90
2018-09-21T19:09:18.572Z,2.67
2018-09-21T19:11:46.922Z,2.60
2018-09-21T19:14:15.232Z,2.60
2018-09-21T19:16:43.530Z,3.20
2018-09-21T19:19:11.837Z,2.80
2018-09-21T19:21:40.137Z,2.50
2018-09-21T19:24:08.681Z,2.40
2018-09-21T19:26:37.174Z,2.67
2018-09-21T19:29:06.487Z,3.10
2018-09-21T19:31:34.841Z,2.83
2018-09-21T19:34:03.201Z,3.00
2018-09-21T19:36:31.550Z,3.07
2018-09-21T19:38:59.893Z,2.70
2018-09-21T19:41:28.254Z,2.50
2018-09-21T19:43:56.585Z,2.80
2018-09-21T19:46:24.950Z,2.67
2018-09-21T19:48:53.262Z,2.77
2018-09-21T19:51:21.654Z,2.10
2018-09-21T19:53:50.075Z,2.63
2018-09-21T19:56:19.455Z,2.70
2018-09-21T19:58:47.935Z,2.20
2018-09-21T20:01:16.139Z,3.00
2018-09-21T20:03:44.457Z,3.03
2018-09-21T20:06:12.751Z,2.87
2018-09-21T20:08:41.104Z,2.97
2018-09-21T20:11:09.460Z,2.53
2018-09-21T20:13:38.198Z,2.43
2018-09-21T20:16:07.454Z,2.70
2018-09-21T20:18:36.677Z,2.37
2018-09-21T20:21:06.557Z,2.40
2018-09-21T20:23:35.452Z,2.30
2018-09-21T20:26:04.467Z,2.40
2018-09-21T20:28:33.563Z,3.00
2018-09-21T20:31:08.664Z,2.83
2018-09-21T20:33:38.092Z,2.20
2018-09-21T20:36:08.110Z,2.13
2018-09-21T20:38:37.126Z,2.50
2018-09-21T20:41:06.235Z,2.77
2018-09-21T20:43:35.245Z,2.97
2018-09-21T20:46:04.366Z,2.57
2018-09-21T20:48:33.431Z,2.30
2018-09-21T20:51:02.384Z,2.80
2018-09-21T20:53:31.464Z,2.97
2018-09-21T20:56:00.560Z,1.93
2018-09-21T20:58:29.613Z,2.47
2018-09-21T21:00:58.757Z,1.90
2018-09-21T21:03:27.676Z,2.63
2018-09-21T21:05:56.677Z,2.00
2018-09-21T21:08:25.455Z,2.13
2018-09-21T21:10:54.418Z,2.60
2018-09-21T21:13:23.061Z,2.43
2018-09-21T21:15:51.991Z,2.30
2018-09-21T21:18:21.503Z,2.13
2018-09-21T21:20:51.608Z,2.10
2018-09-21T21:23:21.674Z,2.67
2018-09-21T21:25:50.853Z,2.27
2018-09-21T21:28:19.837Z,1.83
2018-09-21T21:30:49.213Z,2.47
2018-09-21T21:33:18.323Z,1.80
2018-09-21T21:35:47.707Z,2.23
2018-09-21T21:38:17.994Z,1.73
2018-09-21T21:40:47.140Z,1.80
2018-09-21T21:43:16.293Z,1.97
2018-09-21T21:45:45.384Z,1.80
2018-09-21T21:48:16.488Z,1.93
2018-09-21T21:50:46.499Z,2.20
2018-09-21T21:53:15.439Z,2.13
2018-09-21T21:55:43.756Z,1.53
2018-09-21T21:58:12.763Z,2.23
2018-09-21T22:00:46.283Z,3.27
2018-09-21T22:03:15.020Z,2.67
2018-09-21T22:05:44.162Z,2.23
2018-09-21T22:08:12.933Z,2.63
2018-09-21T22:10:42.357Z,2.13
2018-09-21T22:13:16.588Z,2.70
2018-09-21T22:15:44.881Z,2.40
2018-09-21T22:18:14.805Z,2.33
2018-09-21T22:20:44.916Z,2.03
2018-09-21T22:23:13.878Z,1.97
2018-09-21T22:25:42.962Z,2.77
2018-09-21T22:28:11.444Z,1.97
2018-09-21T22:30:40.516Z,1.80
2018-09-21T22:33:09.575Z,2.27
2018-09-21T22:35:38.788Z,2.10
2018-09-21T22:38:08.009Z,2.20
2018-09-21T22:40:37.177Z,2.00
2018-09-21T22:43:06.339Z,2.07
2018-09-21T22:45:36.064Z,2.10
2018-09-21T22:48:05.186Z,1.60
2018-09-21T22:50:34.310Z,1.97
2018-09-21T22:53:04.450Z,1.90
2018-09-21T22:55:33.678Z,2.37
2018-09-21T22:58:02.744Z,1.70
2018-09-21T23:00:31.908Z,2.17
2018-09-21T23:03:01.221Z,1.73
2018-09-21T23:05:30.394Z,1.80
2018-09-21T23:07:59.465Z,1.67
2018-09-21T23:10:28.498Z,1.67
2018-09-21T23:12:57.547Z,1.50
2018-09-21T23:15:26.686Z,1.73
2018-09-21T23:17:55.964Z,1.57
2018-09-21T23:20:24.290Z,1.90
2018-09-21T23:22:52.592Z,2.07
2018-09-21T23:25:20.905Z,1.87
2018-09-21T23:27:50.210Z,1.97
2018-09-21T23:30:18.507Z,2.17
2018-09-21T23:32:47.803Z,1.60
2018-09-21T23:35:16.150Z,1.97
2018-09-21T23:37:45.454Z,3.13
2018-09-21T23:40:13.779Z,1.60
2018-09-21T23:42:42.069Z,1.87
2018-09-21T23:45:10.381Z,2.73
2018-09-21T23:47:38.702Z,2.03
2018-09-21T23:50:07.015Z,2.10
2018-09-21T23:52:35.338Z,1.73
2018-09-21T23:55:03.677Z,1.97
2018-09-21T23:57:31.980Z,1.93
